Time;durP1;ratioP1;P1;durP2;ratioP2;P2;SDS_P1;SDS_P2;PMS_P1;PMS_P2;Temp;Humidity;BMP_temperature;BMP_pressure;BME280_temperature;BME280_humidity;BME280_pressure;Samples;Min_cycle;Max_cycle;Signal;HPM_P1;HPM_P2
2024/02/04 00:00:26;;;;;;;1.70;1.53;;;;;;;9.25;61.36;97285.00;5023957;28;20182;-67
2024/02/04 00:02:51;;;;;;;1.40;1.20;;;;;;;9.24;61.01;97283.31;5015971;28;20227;-67
2024/02/04 00:05:18;;;;;;;2.67;1.40;;;;;;;9.26;60.70;97280.63;5006296;28;20868;-69
2024/02/04 00:07:44;;;;;;;2.10;1.73;;;;;;;9.22;61.19;97282.47;5014769;28;20259;-68
2024/02/04 00:10:09;;;;;;;1.60;1.50;;;;;;;9.22;61.14;97279.84;5024482;28;20556;-68
2024/02/04 00:12:34;;;;;;;1.50;1.30;;;;;;;9.17;60.75;97262.56;5025686;28;20237;-67
2024/02/04 00:15:00;;;;;;;3.77;1.70;;;;;;;9.08;61.60;97255.78;5015700;28;20238;-66
2024/02/04 00:17:29;;;;;;;2.47;1.63;;;;;;;9.07;61.06;97257.53;5023584;28;20207;-67
2024/02/04 00:19:56;;;;;;;7.00;2.10;;;;;;;9.03;61.75;97263.72;5010322;28;20275;-67
2024/02/04 00:22:22;;;;;;;2.40;1.90;;;;;;;9.22;60.66;97258.06;5017770;28;20430;-67
2024/02/04 00:24:47;;;;;;;2.90;1.67;;;;;;;9.10;61.13;97264.44;5021225;28;20557;-69
2024/02/04 00:27:12;;;;;;;2.07;1.87;;;;;;;9.10;61.23;97264.44;5022817;28;20660;-69
2024/02/04 00:29:38;;;;;;;2.30;1.87;;;;;;;9.00;62.20;97258.56;5016153;28;20211;-68
2024/02/04 00:32:04;;;;;;;3.00;1.97;;;;;;;9.02;61.93;97255.91;5013078;28;20844;-67
2024/02/04 00:34:29;;;;;;;1.90;1.53;;;;;;;8.95;62.32;97257.81;5019227;28;20199;-69
2024/02/04 00:36:54;;;;;;;7.43;1.93;;;;;;;9.05;61.64;97235.75;5017380;28;20263;-68
2024/02/04 00:39:20;;;;;;;2.30;1.83;;;;;;;9.07;61.55;97246.19;5017648;28;20937;-69
2024/02/04 00:41:45;;;;;;;1.80;1.70;;;;;;;9.12;61.26;97249.56;5010934;28;20184;-69
2024/02/04 00:44:10;;;;;;;2.47;1.83;;;;;;;9.09;62.02;97247.88;5007249;28;20204;-68
2024/02/04 00:46:36;;;;;;;1.70;1.60;;;;;;;9.06;61.57;97231.38;5022589;28;20214;-67
2024/02/04 00:49:01;;;;;;;1.77;1.33;;;;;;;9.05;61.89;97227.06;5015862;28;20188;-69
2024/02/04 00:51:27;;;;;;;2.07;1.47;;;;;;;9.01;61.89;97238.50;5023588;28;20237;-68
2024/02/04 00:53:52;;;;;;;1.70;1.37;;;;;;;9.02;62.17;97229.72;5010340;28;20200;-68
2024/02/04 00:56:18;;;;;;;3.97;2.13;;;;;;;9.07;62.36;97223.50;5021757;28;20260;-68
2024/02/04 00:58:43;;;;;;;3.70;2.90;;;;;;;9.14;61.98;97212.84;5012692;28;20176;-66
2024/02/04 01:01:09;;;;;;;2.17;1.97;;;;;;;9.08;61.97;97206.88;5016143;28;20180;-66
2024/02/04 01:03:34;;;;;;;2.67;2.47;;;;;;;8.95;62.13;97213.31;5026731;28;20176;-69
2024/02/04 01:06:00;;;;;;;3.30;1.90;;;;;;;8.88;62.71;97212.63;5013086;28;20176;-69
2024/02/04 01:08:25;;;;;;;3.00;2.40;;;;;;;9.06;62.60;97206.06;5018564;28;20563;-68
2024/02/04 01:10:51;;;;;;;4.03;2.07;;;;;;;9.05;62.62;97203.50;5018013;28;20239;-68
2024/02/04 01:13:17;;;;;;;3.27;2.13;;;;;;;8.82;62.87;97212.75;5026760;28;20214;-69
2024/02/04 01:15:42;;;;;;;2.87;2.67;;;;;;;8.81;63.17;97213.66;5015139;28;20687;-68
2024/02/04 01:18:08;;;;;;;3.90;2.60;;;;;;;8.84;63.47;97215.34;5026720;28;20464;-69
2024/02/04 01:20:33;;;;;;;4.33;3.00;;;;;;;8.72;64.08;97226.97;5025041;28;20280;-69
2024/02/04 01:22:59;;;;;;;4.23;2.33;;;;;;;8.81;63.34;97233.72;5016024;28;20210;-68
2024/02/04 01:25:24;;;;;;;2.50;2.30;;;;;;;8.84;63.19;97236.28;5012697;28;20196;-67
2024/02/04 01:27:50;;;;;;;4.00;2.43;;;;;;;8.80;63.75;97239.84;5008172;28;20192;-69
2024/02/04 01:30:15;;;;;;;2.93;2.50;;;;;;;8.82;63.77;97238.06;5011388;28;20219;-68
2024/02/04 01:32:40;;;;;;;2.40;2.20;;;;;;;8.85;63.48;97225.75;5024348;28;20191;-68
2024/02/04 01:35:07;;;;;;;3.67;2.50;;;;;;;8.76;63.72;97227.72;5022059;28;20588;-68
2024/02/04 01:37:32;;;;;;;3.17;2.20;;;;;;;8.66;64.71;97229.69;5012916;28;20187;-68
2024/02/04 01:39:57;;;;;;;3.03;2.73;;;;;;;9.03;62.95;97242.78;5009381;28;20513;-69
2024/02/04 01:42:23;;;;;;;4.60;2.67;;;;;;;8.90;63.49;97237.00;5016713;28;20213;-69
2024/02/04 01:44:48;;;;;;;3.27;2.97;;;;;;;8.76;64.16;97235.59;5014010;28;20195;-69
2024/02/04 01:47:14;;;;;;;3.20;2.70;;;;;;;8.76;64.19;97243.44;5020792;28;20198;-67
2024/02/04 01:49:40;;;;;;;3.43;3.13;;;;;;;8.65;63.96;97246.31;5005548;28;20648;-68
2024/02/04 01:52:07;;;;;;;3.23;2.93;;;;;;;8.61;64.48;97240.28;5016427;28;20433;-67
2024/02/04 01:54:33;;;;;;;4.30;3.47;;;;;;;8.72;64.24;97226.06;5014498;28;20203;-69
2024/02/04 01:57:01;;;;;;;4.50;3.50;;;;;;;8.45;65.27;97216.19;5020036;28;20448;-68
2024/02/04 01:59:30;;;;;;;5.77;3.87;;;;;;;8.48;65.26;97216.16;5004643;28;20494;-68
2024/02/04 02:02:01;;;;;;;4.47;4.07;;;;;;;8.37;65.28;97204.19;5013509;28;20439;-69
2024/02/04 02:04:27;;;;;;;4.83;4.33;;;;;;;8.44;65.49;97198.81;5017968;28;20557;-69
2024/02/04 02:06:55;;;;;;;5.80;5.20;;;;;;;8.44;65.32;97206.66;5017465;28;20544;-68
2024/02/04 02:09:21;;;;;;;5.23;4.73;;;;;;;8.25;65.44;97193.09;5006100;28;20208;-68
2024/02/04 02:11:57;;;;;;;8.20;5.50;;;;;;;8.33;65.19;97199.91;5018507;28;20485;-68
2024/02/04 02:14:28;;;;;;;13.40;5.10;;;;;;;8.10;66.55;97201.25;5021960;28;20199;-68
2024/02/04 02:16:58;;;;;;;6.67;4.53;;;;;;;8.13;65.70;97193.38;5015242;28;20446;-68
2024/02/04 02:19:44;;;;;;;6.77;6.03;;;;;;;8.26;66.08;97196.56;5008760;28;20453;-68
2024/02/04 02:22:25;;;;;;;6.53;5.50;;;;;;;8.18;66.24;97193.25;5014344;28;20501;-68
2024/02/04 02:24:51;;;;;;;5.23;4.73;;;;;;;8.07;66.75;97201.31;5012114;28;21298;-68
2024/02/04 02:27:17;;;;;;;6.20;4.90;;;;;;;7.98;66.86;97215.44;5013812;28;20438;-68
2024/02/04 02:29:42;;;;;;;7.40;5.47;;;;;;;8.02;67.08;97221.47;5010525;28;20462;-67
2024/02/04 02:32:08;;;;;;;5.70;5.10;;;;;;;8.00;66.47;97224.09;5021695;28;20627;-66
2024/02/04 02:34:34;;;;;;;7.40;4.80;;;;;;;7.91;66.86;97228.66;5012630;28;20236;-67
2024/02/04 02:37:08;;;;;;;6.70;5.33;;;;;;;8.00;66.45;97231.94;5010858;28;20195;-69
2024/02/04 02:39:53;;;;;;;5.63;4.90;;;;;;;8.07;66.37;97211.78;5011430;28;20179;-69
2024/02/04 02:42:22;;;;;;;5.27;4.03;;;;;;;8.13;66.74;97227.34;5022324;28;20931;-68
2024/02/04 02:44:48;;;;;;;5.90;4.47;;;;;;;8.15;66.59;97220.34;5017486;28;20458;-67
2024/02/04 02:47:15;;;;;;;10.93;4.53;;;;;;;8.13;66.40;97223.88;5017049;28;20499;-68
2024/02/04 02:49:40;;;;;;;4.87;4.30;;;;;;;7.97;66.55;97225.94;5022651;28;20525;-69
2024/02/04 02:52:06;;;;;;;4.27;3.87;;;;;;;7.95;66.67;97232.94;5023614;28;20799;-69
2024/02/04 02:54:31;;;;;;;3.83;3.50;;;;;;;8.07;66.86;97238.78;5014585;28;20225;-68
2024/02/04 02:56:57;;;;;;;3.50;3.20;;;;;;;7.85;67.34;97230.50;5014937;28;20186;-69
2024/02/04 02:59:23;;;;;;;3.87;3.33;;;;;;;8.06;66.85;97221.38;5030515;28;20271;-69
2024/02/04 03:01:48;;;;;;;3.10;2.80;;;;;;;8.02;67.26;97218.88;5026745;28;20870;-68
2024/02/04 03:04:14;;;;;;;3.23;2.93;;;;;;;7.94;66.77;97237.31;5026783;28;20204;-67
2024/02/04 03:06:39;;;;;;;3.03;2.73;;;;;;;8.02;67.26;97234.53;5024231;28;20195;-70
2024/02/04 03:09:04;;;;;;;3.53;3.17;;;;;;;8.08;66.32;97216.13;5017821;28;20246;-68
2024/02/04 03:11:30;;;;;;;6.10;2.60;;;;;;;8.09;66.34;97209.16;5022468;28;20179;-68
2024/02/04 03:13:55;;;;;;;3.33;3.00;;;;;;;8.18;65.98;97203.72;5021964;28;20206;-68
2024/02/04 03:16:21;;;;;;;2.97;2.67;;;;;;;8.06;66.61;97204.84;5024710;28;20805;-67
2024/02/04 03:18:46;;;;;;;4.70;3.47;;;;;;;8.01;66.16;97202.31;5017450;28;20242;-68
2024/02/04 03:21:17;;;;;;;3.87;3.20;;;;;;;8.06;66.87;97202.22;5009125;28;20267;-67
2024/02/04 03:23:44;;;;;;;6.10;3.80;;;;;;;8.06;66.07;97212.69;5026883;28;20207;-69
2024/02/04 03:26:10;;;;;;;3.50;3.20;;;;;;;7.93;67.22;97212.06;5028294;28;20446;-69
2024/02/04 03:28:36;;;;;;;4.40;3.47;;;;;;;7.84;67.03;97214.84;5020466;28;20454;-69
2024/02/04 03:31:01;;;;;;;5.93;3.00;;;;;;;7.90;66.92;97221.72;5026896;28;20589;-70
2024/02/04 03:33:27;;;;;;;4.90;3.80;;;;;;;7.93;66.71;97209.44;5018356;28;20194;-68
2024/02/04 03:35:52;;;;;;;4.30;3.60;;;;;;;7.92;67.14;97222.56;5023638;28;20230;-69
2024/02/04 03:38:17;;;;;;;4.97;3.57;;;;;;;7.91;66.92;97216.44;5015409;28;20955;-67
2024/02/04 03:40:43;;;;;;;4.93;3.80;;;;;;;7.81;67.48;97213.16;5020421;28;20194;-67
2024/02/04 03:43:09;;;;;;;4.47;3.40;;;;;;;7.69;67.12;97228.22;5016194;28;20241;-68
2024/02/04 03:45:37;;;;;;;5.30;4.17;;;;;;;7.76;66.93;97217.63;5027488;28;20204;-68
2024/02/04 03:48:03;;;;;;;8.80;4.23;;;;;;;7.72;66.56;97222.94;5026955;28;20881;-68
2024/02/04 03:50:29;;;;;;;5.63;4.67;;;;;;;7.80;66.70;97226.28;5030211;28;20466;-69
2024/02/04 03:52:54;;;;;;;4.50;4.10;;;;;;;7.79;67.23;97237.59;5016461;28;20184;-69
2024/02/04 03:55:20;;;;;;;5.77;5.00;;;;;;;7.57;67.22;97237.16;5026295;28;20667;-69
2024/02/04 03:57:45;;;;;;;6.60;5.03;;;;;;;7.63;67.59;97232.69;5023239;28;20254;-68
2024/02/04 04:00:11;;;;;;;6.23;4.90;;;;;;;7.63;67.79;97237.91;5024318;28;20267;-70
2024/02/04 04:02:36;;;;;;;6.17;5.57;;;;;;;7.71;66.99;97237.75;5009857;28;20181;-68
2024/02/04 04:05:02;;;;;;;8.13;6.13;;;;;;;7.65;66.86;97240.47;5016042;28;20536;-68
2024/02/04 04:07:27;;;;;;;6.73;6.07;;;;;;;7.66;67.79;97236.13;5025005;28;20214;-68
2024/02/04 04:09:53;;;;;;;5.80;5.13;;;;;;;7.55;67.16;97231.09;5024092;28;20717;-69
2024/02/04 04:12:18;;;;;;;5.37;4.73;;;;;;;7.55;68.21;97224.13;5015609;28;20192;-68
2024/02/04 04:14:44;;;;;;;4.97;4.47;;;;;;;7.66;66.97;97215.25;5011361;28;20247;-69
2024/02/04 04:17:09;;;;;;;6.43;5.40;;;;;;;7.62;66.75;97220.50;5017198;28;20223;-68
2024/02/04 04:19:36;;;;;;;6.20;5.00;;;;;;;7.59;67.30;97209.25;5024901;28;20266;-68
2024/02/04 04:22:02;;;;;;;4.70;4.30;;;;;;;7.66;67.29;97204.78;5026368;28;20199;-68
2024/02/04 04:24:28;;;;;;;6.10;5.27;;;;;;;7.50;67.97;97209.44;5017507;28;20536;-68
2024/02/04 04:26:53;;;;;;;6.00;5.07;;;;;;;7.54;67.40;97217.19;5014243;28;20538;-68
2024/02/04 04:29:19;;;;;;;6.60;5.70;;;;;;;7.45;68.39;97206.91;5020878;28;20196;-69
2024/02/04 04:31:45;;;;;;;5.57;5.07;;;;;;;7.47;68.29;97204.28;5018233;28;20615;-68
2024/02/04 04:34:10;;;;;;;5.50;4.87;;;;;;;7.51;67.80;97214.66;5020462;28;20204;-67
2024/02/04 04:36:36;;;;;;;4.70;4.20;;;;;;;7.41;67.81;97216.53;5023380;28;20442;-69
2024/02/04 04:39:01;;;;;;;6.33;4.90;;;;;;;7.60;67.90;97229.25;5021678;28;20188;-68
2024/02/04 04:41:26;;;;;;;6.80;5.10;;;;;;;7.55;67.39;97220.66;5013717;28;20232;-67
2024/02/04 04:43:52;;;;;;;4.93;4.47;;;;;;;7.51;68.08;97212.03;5015024;28;20210;-69
2024/02/04 04:46:17;;;;;;;5.13;4.63;;;;;;;7.59;67.32;97220.56;5019119;28;20184;-69
2024/02/04 04:48:43;;;;;;;7.80;5.13;;;;;;;7.59;68.04;97210.13;5012996;28;20182;-68
2024/02/04 04:51:09;;;;;;;6.10;4.57;;;;;;;7.48;67.99;97211.22;5012512;28;20200;-67
2024/02/04 04:53:34;;;;;;;6.20;5.60;;;;;;;7.51;67.64;97227.69;5019638;28;20231;-68
2024/02/04 04:56:00;;;;;;;5.80;5.20;;;;;;;7.39;68.30;97228.78;5016692;28;20645;-69
2024/02/04 04:58:25;;;;;;;7.40;5.13;;;;;;;7.48;67.85;97229.50;5025538;28;20259;-67
2024/02/04 05:00:51;;;;;;;5.93;4.90;;;;;;;7.40;68.18;97229.63;5025635;28;20195;-67
2024/02/04 05:03:16;;;;;;;4.90;4.50;;;;;;;7.56;67.80;97230.19;5021765;28;20267;-68
2024/02/04 05:05:41;;;;;;;5.93;5.37;;;;;;;7.31;68.55;97225.44;5025770;28;20203;-69
2024/02/04 05:08:07;;;;;;;6.50;5.23;;;;;;;7.62;67.38;97235.31;5014892;28;20564;-68
2024/02/04 05:10:32;;;;;;;5.70;4.67;;;;;;;7.41;68.27;97223.50;5014890;28;20557;-68
2024/02/04 05:12:58;;;;;;;7.73;5.47;;;;;;;7.45;68.35;97214.75;5016067;28;20265;-69
2024/02/04 05:15:24;;;;;;;13.00;6.10;;;;;;;7.43;68.33;97206.94;5025291;28;20207;-68
2024/02/04 05:17:50;;;;;;;7.90;5.60;;;;;;;7.40;68.75;97199.16;5018242;28;20188;-68
2024/02/04 05:20:15;;;;;;;7.23;5.33;;;;;;;7.34;68.63;97207.09;5023013;28;20859;-67
2024/02/04 05:22:41;;;;;;;9.53;6.67;;;;;;;7.32;69.39;97213.22;5024341;28;20175;-68
2024/02/04 05:25:08;;;;;;;6.27;5.30;;;;;;;7.28;69.44;97217.66;5015877;28;20624;-67
2024/02/04 05:27:33;;;;;;;8.37;6.30;;;;;;;7.28;68.55;97215.06;5017700;28;20255;-68
2024/02/04 05:29:59;;;;;;;7.60;5.07;;;;;;;7.26;68.73;97214.22;5025195;28;20541;-69
2024/02/04 05:32:24;;;;;;;7.60;5.40;;;;;;;7.29;68.47;97215.91;5014981;28;20653;-68
2024/02/04 05:34:49;;;;;;;7.30;5.87;;;;;;;7.17;69.31;97216.97;5015947;28;20215;-68
2024/02/04 05:37:15;;;;;;;6.90;5.90;;;;;;;7.03;69.58;97219.81;5016527;28;20219;-69
2024/02/04 05:39:40;;;;;;;6.37;5.23;;;;;;;7.08;69.06;97204.94;5019259;28;20904;-66
2024/02/04 05:42:06;;;;;;;6.37;5.77;;;;;;;7.09;69.35;97219.72;5018808;28;20187;-69
2024/02/04 05:44:32;;;;;;;7.67;6.47;;;;;;;7.02;69.41;97220.72;5016129;28;20281;-67
2024/02/04 05:46:57;;;;;;;15.93;6.40;;;;;;;6.90;70.03;97229.63;5005866;28;20168;-67
2024/02/04 05:49:22;;;;;;;9.40;6.23;;;;;;;7.06;69.17;97239.78;5016947;28;20188;-68
2024/02/04 05:51:48;;;;;;;8.00;6.90;;;;;;;7.11;69.15;97248.41;5021972;28;20672;-68
2024/02/04 05:54:13;;;;;;;6.87;5.20;;;;;;;7.06;69.48;97242.41;5019951;28;20199;-69
2024/02/04 05:56:39;;;;;;;6.70;6.00;;;;;;;6.93;70.16;97252.19;5014662;28;20297;-68
2024/02/04 05:59:05;;;;;;;12.27;6.30;;;;;;;6.99;70.10;97258.19;5019521;28;20217;-67
2024/02/04 06:01:30;;;;;;;6.63;5.93;;;;;;;6.89;70.11;97253.97;5022740;28;20175;-68
2024/02/04 06:03:56;;;;;;;6.90;6.20;;;;;;;7.03;69.96;97256.34;5019782;28;20458;-69
2024/02/04 06:06:21;;;;;;;6.97;6.27;;;;;;;7.04;69.69;97257.22;5012953;28;20179;-68
2024/02/04 06:08:47;;;;;;;6.60;5.90;;;;;;;7.02;69.76;97262.47;5021653;28;20184;-69
2024/02/04 06:11:13;;;;;;;8.93;6.30;;;;;;;6.97;69.96;97254.72;5022890;28;20219;-67
2024/02/04 06:13:43;;;;;;;10.07;5.00;;;;;;;7.09;69.39;97266.72;5019634;28;20969;-69
2024/02/04 06:16:12;;;;;;;9.33;6.50;;;;;;;7.24;68.63;97260.38;5003975;28;20191;-69
2024/02/04 06:18:39;;;;;;;6.90;6.20;;;;;;;7.03;69.93;97261.56;5015845;28;21049;-68
2024/02/04 06:21:05;;;;;;;6.57;5.20;;;;;;;6.98;70.17;97260.78;5011745;28;20426;-68
2024/02/04 06:23:30;;;;;;;10.43;6.00;;;;;;;7.12;69.28;97257.97;5018590;28;20422;-68
2024/02/04 06:25:56;;;;;;;11.67;5.80;;;;;;;7.07;69.81;97263.25;5023773;28;20437;-70
2024/02/04 06:28:21;;;;;;;7.77;6.03;;;;;;;7.02;70.12;97266.84;5015391;28;20276;-69
2024/02/04 06:30:47;;;;;;;9.40;6.63;;;;;;;7.26;69.81;97265.56;5025659;28;20202;-67
2024/02/04 06:33:13;;;;;;;9.10;6.93;;;;;;;6.97;70.31;97246.03;5027933;28;20186;-67
2024/02/04 06:35:38;;;;;;;10.90;6.07;;;;;;;7.16;69.58;97247.44;5025353;28;20203;-68
2024/02/04 06:38:03;;;;;;;13.30;6.47;;;;;;;7.04;70.14;97252.88;5019984;28;20218;-67
2024/02/04 06:40:29;;;;;;;7.10;6.40;;;;;;;6.98;70.52;97250.34;5027642;28;20968;-67
2024/02/04 06:42:54;;;;;;;8.37;6.07;;;;;;;6.95;70.19;97255.63;5027922;28;20179;-68
2024/02/04 06:45:19;;;;;;;6.30;5.53;;;;;;;7.09;70.11;97258.88;5023114;28;20200;-69
2024/02/04 06:47:45;;;;;;;13.23;7.13;;;;;;;6.94;70.39;97257.34;5026443;28;20206;-69
2024/02/04 06:50:14;;;;;;;8.00;6.63;;;;;;;6.95;70.36;97253.88;5026647;28;20280;-67
2024/02/04 06:52:43;;;;;;;6.97;6.00;;;;;;;7.00;70.91;97259.03;5012256;28;20207;-68
2024/02/04 06:55:09;;;;;;;11.43;7.90;;;;;;;6.91;70.92;97259.16;5023396;28;20603;-67
2024/02/04 06:57:35;;;;;;;9.60;7.93;;;;;;;6.88;70.97;97262.69;5025418;28;20442;-68
2024/02/04 07:00:01;;;;;;;11.03;6.80;;;;;;;6.77;71.51;97262.84;5018800;28;21260;-67
2024/02/04 07:02:26;;;;;;;10.17;7.30;;;;;;;6.91;71.59;97267.00;5010919;28;20672;-68
2024/02/04 07:04:52;;;;;;;14.63;8.70;;;;;;;6.79;71.89;97273.25;5018457;28;20203;-69
2024/02/04 07:07:18;;;;;;;9.80;7.47;;;;;;;6.87;71.22;97270.53;5020762;28;20183;-68
2024/02/04 07:09:43;;;;;;;8.37;6.43;;;;;;;6.96;70.82;97266.03;5027112;28;20477;-67
2024/02/04 07:12:08;;;;;;;10.77;6.43;;;;;;;6.77;71.67;97273.28;5026929;28;20190;-68
2024/02/04 07:14:34;;;;;;;8.07;6.37;;;;;;;6.97;70.52;97272.13;5017972;28;20206;-68
2024/02/04 07:16:59;;;;;;;6.67;5.97;;;;;;;6.90;71.50;97281.78;5011793;28;20184;-68
2024/02/04 07:19:24;;;;;;;7.30;6.57;;;;;;;6.86;71.19;97274.91;5022889;28;20180;-69
2024/02/04 07:21:50;;;;;;;9.00;6.30;;;;;;;6.87;71.03;97281.81;5016004;28;20184;-67
2024/02/04 07:24:16;;;;;;;8.03;6.93;;;;;;;7.04;71.12;97293.75;5017779;28;20200;-66
2024/02/04 07:26:41;;;;;;;9.80;6.43;;;;;;;6.91;71.63;97299.16;5016406;28;20183;-67
2024/02/04 07:29:06;;;;;;;7.90;6.77;;;;;;;6.93;71.75;97293.94;5021412;28;20183;-68
2024/02/04 07:31:32;;;;;;;10.60;7.00;;;;;;;6.88;71.71;97278.34;5014287;28;20176;-69
2024/02/04 07:33:57;;;;;;;8.57;6.27;;;;;;;6.86;72.09;97268.81;5024256;28;20222;-69
2024/02/04 07:36:22;;;;;;;9.13;7.63;;;;;;;7.03;71.49;97255.50;5010410;28;20184;-69
2024/02/04 07:38:48;;;;;;;11.57;7.53;;;;;;;7.08;70.80;97245.84;5015759;28;20210;-68
2024/02/04 07:41:15;;;;;;;8.30;7.30;;;;;;;7.07;70.66;97251.97;5027084;28;20204;-69
2024/02/04 07:43:41;;;;;;;8.50;7.20;;;;;;;7.15;70.35;97255.28;5024398;28;20945;-68
2024/02/04 07:46:08;;;;;;;11.20;6.40;;;;;;;7.20;70.61;97240.41;5027489;28;20497;-67
2024/02/04 07:48:33;;;;;;;15.70;6.63;;;;;;;7.22;70.59;97225.59;5017182;28;20445;-68
2024/02/04 07:50:59;;;;;;;21.80;7.43;;;;;;;7.45;69.67;97224.34;5012514;28;20466;-68
2024/02/04 07:53:25;;;;;;;12.27;6.77;;;;;;;7.51;68.75;97240.75;5019459;28;20313;-68
2024/02/04 07:55:50;;;;;;;10.53;6.30;;;;;;;7.58;68.36;97237.16;5019292;28;20207;-68
2024/02/04 07:58:16;;;;;;;23.17;7.40;;;;;;;7.51;68.72;97232.94;5025528;28;20804;-69
2024/02/04 08:00:42;;;;;;;13.33;6.07;;;;;;;7.79;68.22;97233.22;5020512;28;20184;-70
2024/02/04 08:03:07;;;;;;;9.07;5.57;;;;;;;8.16;66.28;97232.50;5022694;28;20627;-67
2024/02/04 08:05:35;;;;;;;7.00;5.87;;;;;;;8.27;66.68;97234.91;5020793;28;20210;-69
2024/02/04 08:08:00;;;;;;;6.40;5.80;;;;;;;8.70;65.05;97239.22;5021404;28;20183;-67
2024/02/04 08:10:25;;;;;;;9.60;4.97;;;;;;;10.99;68.37;97231.19;5020112;28;20490;-65
2024/02/04 08:12:53;;;;;;;5.30;4.80;;;;;;;10.62;58.09;97230.63;5015575;28;20221;-67
2024/02/04 08:15:18;;;;;;;7.07;6.03;;;;;;;10.17;59.46;97237.16;5014057;28;20294;-67
2024/02/04 08:17:43;;;;;;;5.20;4.70;;;;;;;9.37;61.30;97236.69;5020981;28;20445;-65
2024/02/04 08:20:10;;;;;;;5.73;4.90;;;;;;;8.89;62.79;97237.03;5025000;28;20187;-66
2024/02/04 08:22:35;;;;;;;5.53;4.90;;;;;;;8.59;63.82;97228.97;5025951;28;20183;-67
2024/02/04 08:25:01;;;;;;;13.50;6.40;;;;;;;8.18;65.76;97225.50;5024424;28;20492;-66
2024/02/04 08:27:27;;;;;;;7.30;4.80;;;;;;;8.17;65.14;97226.41;5025567;28;20202;-67
2024/02/04 08:29:52;;;;;;;8.13;5.00;;;;;;;8.06;66.17;97223.13;5021283;28;20489;-64
2024/02/04 08:32:18;;;;;;;5.20;4.70;;;;;;;8.15;65.81;97220.34;5025290;28;20192;-66
2024/02/04 08:34:43;;;;;;;9.63;5.20;;;;;;;8.48;65.25;97221.38;5021624;28;20231;-65
2024/02/04 08:37:09;;;;;;;8.67;5.90;;;;;;;8.48;64.85;97224.00;5015391;28;20199;-67
2024/02/04 08:39:34;;;;;;;5.00;4.70;;;;;;;8.52;65.43;97222.16;5022027;28;20546;-66
2024/02/04 08:41:59;;;;;;;6.47;4.10;;;;;;;8.58;64.22;97208.97;5020680;28;20640;-65
2024/02/04 08:44:25;;;;;;;6.30;5.20;;;;;;;8.72;64.16;97208.63;5014886;28;20219;-66
2024/02/04 08:46:50;;;;;;;5.30;4.63;;;;;;;8.77;63.91;97195.44;5017721;28;20176;-65
2024/02/04 08:49:16;;;;;;;6.20;4.47;;;;;;;8.99;63.52;97207.09;5018805;28;20242;-66
2024/02/04 08:51:41;;;;;;;6.53;5.37;;;;;;;9.10;63.20;97202.47;5024135;28;20187;-67
2024/02/04 08:54:07;;;;;;;4.93;4.43;;;;;;;9.44;61.69;97196.34;5020289;28;20207;-68
2024/02/04 08:56:32;;;;;;;4.50;4.10;;;;;;;9.77;60.73;97200.72;5015494;28;20186;-66
2024/02/04 08:58:59;;;;;;;5.73;4.60;;;;;;;9.97;59.95;97201.03;5015193;28;20183;-66
2024/02/04 09:01:25;;;;;;;6.00;4.77;;;;;;;10.06;59.44;97199.88;5022179;28;20176;-67
2024/02/04 09:03:50;;;;;;;9.07;4.80;;;;;;;10.14;59.40;97200.53;5021576;28;20492;-67
2024/02/04 09:06:16;;;;;;;4.37;3.73;;;;;;;9.85;59.85;97215.34;5021750;28;20285;-65
2024/02/04 09:08:41;;;;;;;4.40;3.87;;;;;;;10.13;58.87;97211.91;5015858;28;20594;-64
2024/02/04 09:11:06;;;;;;;5.23;3.37;;;;;;;10.49;57.87;97215.25;5016519;28;20210;-68
2024/02/04 09:13:32;;;;;;;5.23;4.73;;;;;;;10.59;57.18;97213.19;5019473;28;20190;-66
2024/02/04 09:15:58;;;;;;;4.30;3.07;;;;;;;10.80;56.79;97215.16;5023909;28;20222;-67
2024/02/04 09:18:23;;;;;;;5.60;3.30;;;;;;;10.59;57.77;97215.81;5015896;28;20187;-67
2024/02/04 09:20:49;;;;;;;3.50;2.83;;;;;;;10.15;59.26;97210.09;5022324;28;20266;-66
2024/02/04 09:23:14;;;;;;;4.53;3.40;;;;;;;9.72;60.46;97204.31;5015848;28;20222;-66
2024/02/04 09:25:39;;;;;;;5.93;3.70;;;;;;;9.63;61.12;97207.19;5023745;28;20205;-66
2024/02/04 09:28:05;;;;;;;4.23;3.00;;;;;;;9.80;60.89;97198.84;5015131;28;20195;-68
2024/02/04 09:30:31;;;;;;;4.40;2.90;;;;;;;9.96;60.14;97202.75;5011304;28;20196;-66
2024/02/04 09:32:56;;;;;;;4.10;3.43;;;;;;;10.15;59.58;97197.84;5016417;28;20267;-69
2024/02/04 09:35:22;;;;;;;6.80;3.20;;;;;;;9.85;60.42;97204.84;5016394;28;20246;-66
2024/02/04 09:37:47;;;;;;;4.03;3.63;;;;;;;9.92;60.55;97222.13;5022727;28;20191;-69
2024/02/04 09:40:13;;;;;;;3.70;3.00;;;;;;;9.74;60.97;97209.53;5016695;28;20234;-67
2024/02/04 09:42:38;;;;;;;4.43;3.90;;;;;;;9.85;60.66;97220.59;5022849;28;20187;-66
2024/02/04 09:45:04;;;;;;;5.40;4.10;;;;;;;9.43;62.55;97223.44;5014190;28;20614;-64
2024/02/04 09:47:32;;;;;;;5.03;3.40;;;;;;;9.68;61.78;97230.66;5021124;28;20198;-66
2024/02/04 09:49:57;;;;;;;4.23;3.87;;;;;;;9.52;61.79;97241.56;5025825;28;20505;-67
2024/02/04 09:52:32;;;;;;;6.27;3.80;;;;;;;9.22;63.18;97239.72;5024320;28;20929;-65
2024/02/04 09:55:03;;;;;;;3.90;3.23;;;;;;;9.25;63.29;97248.34;5025587;28;20310;-68
2024/02/04 09:57:33;;;;;;;4.07;2.77;;;;;;;9.11;63.13;97250.44;5026642;28;20437;-66
2024/02/04 09:59:59;;;;;;;3.27;2.97;;;;;;;9.17;63.32;97249.47;5016879;28;21058;-69
2024/02/04 10:02:25;;;;;;;6.63;3.77;;;;;;;9.51;62.69;97239.81;5022554;28;20445;-67
2024/02/04 10:04:51;;;;;;;6.57;3.20;;;;;;;9.88;61.26;97230.13;5018729;28;20731;-66
2024/02/04 10:07:18;;;;;;;10.80;4.10;;;;;;;10.02;60.84;97224.50;5020911;28;20541;-66
2024/02/04 10:09:44;;;;;;;4.37;3.53;;;;;;;10.36;59.12;97216.53;5018815;28;20318;-65
2024/02/04 10:12:09;;;;;;;5.70;3.57;;;;;;;10.52;58.84;97214.28;5019968;28;20433;-66
2024/02/04 10:14:35;;;;;;;3.33;3.03;;;;;;;10.86;57.73;97208.84;5012170;28;20455;-66
2024/02/04 10:17:01;;;;;;;9.00;4.03;;;;;;;11.04;57.33;97201.28;5010053;28;20184;-65
2024/02/04 10:19:26;;;;;;;4.50;3.20;;;;;;;11.13;56.83;97206.25;5010851;28;20646;-68
2024/02/04 10:22:03;;;;;;;5.20;3.60;;;;;;;11.37;56.68;97209.81;5016556;28;20203;-67
2024/02/04 10:24:28;;;;;;;4.07;3.67;;;;;;;11.41;55.61;97190.41;5007018;28;20852;-66
2024/02/04 10:26:57;;;;;;;5.00;3.30;;;;;;;11.47;55.59;97199.84;5012756;28;20441;-68
2024/02/04 10:29:24;;;;;;;11.83;3.80;;;;;;;11.40;55.53;97188.66;5012256;28;20190;-68
2024/02/04 10:31:57;;;;;;;8.00;4.50;;;;;;;11.31;56.21;97183.72;5003846;28;20467;-68
2024/02/04 10:34:23;;;;;;;4.10;3.07;;;;;;;11.27;56.06;97179.47;5012125;28;20480;-67
2024/02/04 10:36:49;;;;;;;5.90;2.73;;;;;;;11.26;56.61;97183.03;5018138;28;20454;-67
2024/02/04 10:39:14;;;;;;;3.10;2.80;;;;;;;10.94;57.04;97185.84;5016052;28;20434;-68
2024/02/04 10:41:49;;;;;;;3.93;3.20;;;;;;;10.93;57.37;97183.25;5004348;28;20275;-67
2024/02/04 10:44:16;;;;;;;3.43;3.13;;;;;;;10.84;57.89;97178.28;5010530;28;20313;-67
2024/02/04 10:46:46;;;;;;;3.20;2.90;;;;;;;10.90;57.96;97175.47;5007282;28;20921;-68
2024/02/04 10:49:14;;;;;;;2.73;2.50;;;;;;;10.80;57.70;97181.03;5024774;28;20438;-68
2024/02/04 10:51:41;;;;;;;3.03;2.83;;;;;;;10.40;58.58;97186.66;5009707;28;20423;-67
2024/02/04 10:54:07;;;;;;;3.37;2.23;;;;;;;10.26;59.91;97199.31;5017188;28;20550;-68
2024/02/04 10:56:46;;;;;;;7.40;2.50;;;;;;;10.26;60.06;97200.16;5017402;28;20445;-67
2024/02/04 10:59:17;;;;;;;4.03;3.20;;;;;;;10.38;59.17;97191.94;5019556;28;20430;-69
2024/02/04 11:01:43;;;;;;;3.47;3.17;;;;;;;10.42;58.89;97182.22;5016491;28;20505;-68
2024/02/04 11:04:13;;;;;;;4.60;2.60;;;;;;;10.67;58.35;97171.81;5017065;28;20457;-68
2024/02/04 11:06:43;;;;;;;4.93;3.17;;;;;;;10.64;58.43;97165.81;5014666;28;20435;-68
2024/02/04 11:09:12;;;;;;;3.80;2.23;;;;;;;10.81;57.75;97153.00;5005774;28;20492;-70
2024/02/04 11:11:39;;;;;;;5.27;2.60;;;;;;;11.12;57.06;97152.81;5007152;28;20513;-69
2024/02/04 11:14:09;;;;;;;5.33;2.73;;;;;;;11.14;57.74;97153.63;5018672;28;20551;-68
2024/02/04 11:16:44;;;;;;;2.13;1.93;;;;;;;11.47;56.81;97148.13;5007967;28;20431;-69
2024/02/04 11:19:32;;;;;;;2.60;2.37;;;;;;;11.62;55.75;97137.06;5015142;28;20431;-68
2024/02/04 11:22:16;;;;;;;3.63;2.40;;;;;;;11.80;55.26;97129.41;5006655;28;20446;-68
2024/02/04 11:25:04;;;;;;;3.87;2.43;;;;;;;11.50;55.90;97128.75;5007857;28;20992;-68
2024/02/04 11:27:30;;;;;;;19.77;4.20;;;;;;;10.99;57.36;97131.38;5018721;28;20521;-69
2024/02/04 11:29:56;;;;;;;11.33;3.20;;;;;;;10.84;58.17;97117.91;5013043;28;21086;-68
2024/02/04 11:32:23;;;;;;;13.90;3.50;;;;;;;10.49;59.45;97118.16;5011060;28;20431;-65
2024/02/04 11:34:49;;;;;;;6.50;3.07;;;;;;;10.60;59.26;97110.78;5020317;28;20582;-66